Nearby METAR Reports

 

KCGS - College Park, Maryland, USA
Distance from station: S 2mi, 3km
Updated: 07/20/2018 1:57pm
Mostly cloudy
Mostly cloudy
 Wind from SE
Wind: SE 8 mph , 13 km/h
Temperature: 84°F , 29°C
Heat Index: 83°F , 28°C
Dew Point: 57°F , 14°C
Humidity: 40%
Barometer: 30.10 inHg , 1019.3 hPa
Clouds: Mostly cloudy
Visibility: 10 miles , 16 km
Cloud details: Mostly cloudy 6000 ft
2018/07/20 17:57 KCGS 201757Z AUTO 14007KT 10SM BKN060 29/14 A3010 RMK AO1 T02850140
KFME - Fort Meade, Maryland, USA
Distance from station: ENE 10mi, 15km
Updated: 07/20/2018 1:57pm
Clear
Clear
 Wind from SSE
Wind: SSE 7 mph , 11 km/h
Temperature: 82°F , 28°C
Heat Index: 82°F , 28°C
Dew Point: 59°F , 15°C
Humidity: 45%
Barometer: 30.13 inHg , 1020.3 hPa
Clouds: Clear
Visibility: 10 miles , 16 km
2018/07/20 17:57 KFME 201757Z AUTO 15006KT 10SM CLR 28/15 A3013 RMK AO1
KDCA - Washington/Natl, Washington D.c., USA
Distance from station: SSW 13mi, 20km
Updated: 07/20/2018 1:52pm
Overcast
Overcast
 Wind from SSE
Wind: SSE 8 mph , 13 km/h
Temperature: 82°F , 28°C
Heat Index: 82°F , 28°C
Dew Point: 61°F , 16°C
Humidity: 48%
Barometer: 30.11 inHg , 1019.6 hPa
Clouds: Overcast
Visibility: 10 miles , 16 km
Cloud details: Mostly cloudy 7000 ft
Mostly cloudy 16000 ft
Overcast 25000 ft
2018/07/20 17:52 KDCA 201752Z 15007KT 10SM BKN070 BKN160 OVC250 28/16 A3011 RMK AO2 SLP194 T02830161 10300 20233 58008
 
KADW - Andrews Afb, Maryland, USA
Distance from station: SSE 14mi, 22km
Updated: 07/20/2018 1:56pm
Mostly cloudy
Mostly cloudy
 Wind from SE
Wind: SE 9 mph , 15 km/h, Gust: 17 mph , 28 km/h
Temperature: 84°F , 29°C
Heat Index: 84°F , 29°C
Dew Point: 59°F , 15°C
Humidity: 43%
Barometer: 30.11 inHg , 1019.6 hPa
Clouds: Mostly cloudy
Visibility: 10 miles , 16 km
Cloud details: Few Clouds 10000 ft
Partly cloudy 17000 ft
Mostly cloudy 20000 ft
2018/07/20 17:56 KADW 201756Z AUTO 14008G15KT 10SM FEW100 SCT170 BKN200 29/15 A3011 RMK AO2 SLP201 T02870145 10290 20222 57008 $
KBWI - Balto/Wash Intl, Maryland, USA
Distance from station: NE 17mi, 27km
Updated: 07/20/2018 1:54pm
Mostly cloudy
Mostly cloudy
 Wind from varies
Wind: varies 5 mph , 7 km/h
Temperature: 84°F , 29°C
Heat Index: 83°F , 28°C
Dew Point: 57°F , 14°C
Humidity: 40%
Barometer: 30.10 inHg , 1019.3 hPa
Clouds: Mostly cloudy
Visibility: 10 miles , 16 km
Cloud details: Partly cloudy 6000 ft
Partly cloudy 11000 ft
Mostly cloudy 18000 ft
Mostly cloudy 25000 ft
2018/07/20 17:54 KBWI 201754Z VRB04KT 10SM SCT060 SCT110 BKN180 BKN250 29/14 A3010 RMK AO2 SLP191 T02890139 10289 20228 58009
KGAI - Gaithersburg, Maryland, USA
Distance from station: NW 17mi, 28km
Updated: 07/20/2018 1:56pm
Mostly cloudy
Mostly cloudy
 Wind from SSE
Wind: SSE 8 mph , 13 km/h
Temperature: 84°F , 29°C
Heat Index: 84°F , 29°C
Dew Point: 61°F , 16°C
Humidity: 45%
Barometer: 30.12 inHg , 1020 hPa
Clouds: Mostly cloudy
Visibility: 10 miles , 16 km
Cloud details: Few Clouds 4400 ft
Mostly cloudy 5500 ft
2018/07/20 17:56 KGAI 201756Z AUTO 15007KT 10SM FEW044 BKN055 29/16 A3012 RMK AO2 SLP219 T02940161 10300 20206 58010
 
KNAK - Annapolis/Naval, Maryland, USA
Distance from station: E 23mi, 38km
Updated: 07/20/2018 1:54pm
Clear
Clear
 Wind from SSE
Wind: SSE 8 mph , 13 km/h
Temperature: 84°F , 29°C
Heat Index: 83°F , 28°C
Dew Point: 57°F , 14°C
Humidity: 40%
Barometer: 30.11 inHg , 1019.6 hPa
Clouds: Clear
Visibility: 10 miles , 16 km
2018/07/20 17:54 KNAK 201754Z AUTO 15007KT 10SM CLR 29/14 A3011 RMK AO2 SLP197 T02940139 10300 20256 58010
KDAA - Fort Belvoir/Dav, Virginia, USA
Distance from station: SSW 24mi, 39km
Updated: 07/20/2018 1:56pm
Few Clouds
Few Clouds
 Wind from ESE
Wind: ESE 8 mph , 13 km/h
Temperature: 84°F , 29°C
Heat Index: 85°F , 29°C
Dew Point: 63°F , 17°C
Humidity: 48%
Barometer: 30.10 inHg , 1019.3 hPa
Clouds: Few Clouds
Visibility: 10 miles , 16 km
Cloud details: Few Clouds 8000 ft
Few Clouds 14000 ft
Few Clouds 17000 ft
2018/07/20 17:56 KDAA 201756Z AUTO 12007KT 10SM FEW080 FEW140 FEW170 29/17 A3010 RMK AO2 SLP196 T02900165 10295 20217 57009 $
KDMH - Baltimore/Dwntwn, Maryland, USA
Distance from station: NE 25mi, 40km
Updated: 07/20/2018 1:54pm

 
Temperature: 84°F , 29°C
Dew Point: 54°F , 12°C
Humidity: 35%
Barometer: 30.12 inHg , 1020 hPa
2018/07/20 17:54 KDMH 201754Z AUTO 29/12 A3012 RMK AO1 SLP197 T02890117 10311 20250 58006
 
KIAD - Wash Dc/Dulles, Virginia, USA
Distance from station: W 29mi, 47km
Updated: 07/20/2018 1:52pm
Mostly cloudy
Mostly cloudy
 Wind from SE
Wind: SE 10 mph , 17 km/h
Temperature: 82°F , 28°C
Heat Index: 82°F , 28°C
Dew Point: 61°F , 16°C
Humidity: 48%
Barometer: 30.10 inHg , 1019.3 hPa
Clouds: Mostly cloudy
Visibility: 10 miles , 16 km
Cloud details: Partly cloudy 6000 ft
Mostly cloudy 9000 ft
Mostly cloudy 18000 ft
Mostly cloudy 25000 ft
2018/07/20 17:52 KIAD 201752Z 14009KT 10SM SCT060 BKN090 BKN180 BKN250 28/16 A3010 RMK AO2 SLP190 T02780156 10294 20222 58008
KW29 - Stevensville, Maryland, USA
Distance from station: E 31mi, 51km
Updated: 07/20/2018 1:55pm
Clear
Clear
 Wind from S
Wind: S 8 mph , 13 km/h
Temperature: 86°F , 30°C
Dew Point: 57°F , 14°C
Humidity: 38%
Barometer: 30.11 inHg , 1019.6 hPa
Clouds: Clear
Visibility: 10 miles , 16 km
2018/07/20 17:55 KW29 201755Z AUTO 17007KT 140V200 10SM CLR 30/14 A3011 RMK AO2
KMTN - Baltimore/Martin, Maryland, USA
Distance from station: NE 34mi, 55km
Updated: 07/20/2018 1:45pm
Mostly cloudy
Mostly cloudy
 Wind from SE
Wind: SE 9 mph , 15 km/h
Temperature: 84°F , 29°C
Heat Index: 84°F , 29°C
Dew Point: 61°F , 16°C
Humidity: 45%
Barometer: 30.12 inHg , 1020 hPa
Clouds: Mostly cloudy
Visibility: 10 miles , 16 km
Cloud details: Partly cloudy 15000 ft
Mostly cloudy 20000 ft
2018/07/20 17:45 KMTN 201745Z 14008KT 10SM SCT150 BKN200 29/16 A3012
 
KJYO - Leesburg/Godfrey, Virginia, USA
Distance from station: W 35mi, 56km
Updated: 07/20/2018 1:55pm
Partly cloudy
Partly cloudy
 Wind from SSE
Wind: SSE 9 mph , 15 km/h, Gust: 16 mph , 26 km/h
Temperature: 86°F , 30°C
Heat Index: 86°F , 30°C
Dew Point: 61°F , 16°C
Humidity: 43%
Barometer: 30.11 inHg , 1019.6 hPa
Clouds: Partly cloudy
Visibility: 10 miles , 16 km
Cloud details: Partly cloudy 5000 ft
Partly cloudy 7000 ft
2018/07/20 17:55 KJYO 201755Z AUTO 16008G14KT 10SM SCT050 SCT070 30/16 A3011 RMK AO2
KFDK - Frederick, Maryland, USA
Distance from station: NW 37mi, 60km
Updated: 07/20/2018 1:47pm
Mostly cloudy
Mostly cloudy
 Wind from ESE
Wind: ESE 9 mph , 15 km/h
Temperature: 84°F , 29°C
Dew Point: 55°F , 13°C
Humidity: 37%
Barometer: 30.12 inHg , 1020 hPa
Clouds: Mostly cloudy
Visibility: 10 miles , 16 km
Cloud details: Mostly cloudy 5000 ft
Mostly cloudy 7000 ft
2018/07/20 17:47 KFDK 201747Z 11008KT 10SM BKN050 BKN070 29/13 A3012
KHEF - Manassas Muni, Virginia, USA
Distance from station: WSW 38mi, 61km
Updated: 07/20/2018 1:56pm
Few Clouds
Few Clouds
 Wind from SSE
Wind: SSE 12 mph , 19 km/h
Temperature: 84°F , 29°C
Heat Index: 85°F , 29°C
Dew Point: 64°F , 18°C
Humidity: 51%
Barometer: 30.10 inHg , 1019.3 hPa
Clouds: Few Clouds
Visibility: 10 miles , 16 km
Cloud details: Few Clouds 4700 ft
2018/07/20 17:56 KHEF 201756Z 15010KT 10SM FEW047 29/18 A3010 RMK AO2 SLP200 6//// T02940183 10294 20211 58010 PNO $
 
KNYG - Quantico Mcaf, Virginia, USA
Distance from station: SSW 40mi, 65km
Updated: 07/20/2018 1:56pm
Clear
Clear
 Wind from SSW
Wind: SSW 8 mph , 13 km/h
Temperature: 84°F , 29°C
Heat Index: 85°F , 29°C
Dew Point: 64°F , 18°C
Humidity: 51%
Barometer: 30.10 inHg , 1019.3 hPa
Clouds: Clear
Visibility: 10 miles , 16 km
2018/07/20 17:56 KNYG 201756Z AUTO 21007KT 10SM CLR 29/18 A3010 RMK AO2 SLP194 T02940178 10294 20228 58012
KDMW - Carroll Cnty, Maryland, USA
Distance from station: N 41mi, 66km
Updated: 07/20/2018 1:55pm
Mostly cloudy
Mostly cloudy
 Wind from SE
Wind: SE 10 mph , 17 km/h
Temperature: 84°F , 29°C
Heat Index: 84°F , 29°C
Dew Point: 61°F , 16°C
Humidity: 45%
Barometer: 30.11 inHg , 1019.6 hPa
Clouds: Mostly cloudy
Visibility: 10 miles , 16 km
Cloud details: Mostly cloudy 6000 ft
2018/07/20 17:55 KDMW 201755Z AUTO 14009KT 120V180 10SM BKN060 29/16 A3011 RMK AO2
KESN - Easton/Newnam, Maryland, USA
Distance from station: ESE 48mi, 77km
Updated: 07/20/2018 1:50pm
Mostly cloudy
Mostly cloudy
 Wind from SSE
Wind: SSE 9 mph , 15 km/h
Temperature: 86°F , 30°C
Heat Index: 85°F , 29°C
Dew Point: 59°F , 15°C
Humidity: 40%
Barometer: 30.15 inHg , 1021 hPa
Clouds: Mostly cloudy
Visibility: 10 miles , 16 km
Cloud details: Mostly cloudy 7000 ft
2018/07/20 17:50 KESN 201750Z 15008KT 10SM BKN070 30/15 A3015